sensor_id;sensor_type;location;lat;lon;timestamp;temperature;humidity
14771;DHT22;7477;45.222;5.688;2024-02-26T00:00:40;10.30;99.90
14771;DHT22;7477;45.222;5.688;2024-02-26T00:04:00;10.10;99.90
14771;DHT22;7477;45.222;5.688;2024-02-26T00:07:21;10.40;99.90
14771;DHT22;7477;45.222;5.688;2024-02-26T00:10:40;10.20;99.90
14771;DHT22;7477;45.222;5.688;2024-02-26T00:13:59;10.40;99.90
14771;DHT22;7477;45.222;5.688;2024-02-26T00:17:18;10.20;99.90
14771;DHT22;7477;45.222;5.688;2024-02-26T00:20:37;10.10;99.90
14771;DHT22;7477;45.222;5.688;2024-02-26T00:23:58;10.80;99.90
14771;DHT22;7477;45.222;5.688;2024-02-26T00:27:17;10.30;99.90
14771;DHT22;7477;45.222;5.688;2024-02-26T00:30:37;10.20;99.90
14771;DHT22;7477;45.222;5.688;2024-02-26T00:33:56;10.60;99.90
14771;DHT22;7477;45.222;5.688;2024-02-26T00:37:16;10.10;99.90
14771;DHT22;7477;45.222;5.688;2024-02-26T00:40:37;10.30;99.90
14771;DHT22;7477;45.222;5.688;2024-02-26T00:43:56;10.20;99.90
14771;DHT22;7477;45.222;5.688;2024-02-26T00:47:15;10.30;99.90
14771;DHT22;7477;45.222;5.688;2024-02-26T00:50:35;9.90;99.90
14771;DHT22;7477;45.222;5.688;2024-02-26T00:53:54;10.70;99.90
14771;DHT22;7477;45.222;5.688;2024-02-26T00:57:14;10.70;99.90
14771;DHT22;7477;45.222;5.688;2024-02-26T01:00:33;11.70;99.90
14771;DHT22;7477;45.222;5.688;2024-02-26T01:03:52;11.60;99.90
14771;DHT22;7477;45.222;5.688;2024-02-26T01:07:12;11.10;99.90
14771;DHT22;7477;45.222;5.688;2024-02-26T01:10:31;12.40;99.90
14771;DHT22;7477;45.222;5.688;2024-02-26T01:13:50;12.70;99.90
14771;DHT22;7477;45.222;5.688;2024-02-26T01:17:15;13.40;99.90
14771;DHT22;7477;45.222;5.688;2024-02-26T01:20:34;13.50;99.90
14771;DHT22;7477;45.222;5.688;2024-02-26T01:23:53;13.80;99.90
14771;DHT22;7477;45.222;5.688;2024-02-26T01:27:12;14.50;99.90
14771;DHT22;7477;45.222;5.688;2024-02-26T01:30:33;13.00;99.90
14771;DHT22;7477;45.222;5.688;2024-02-26T01:33:52;12.90;99.90
14771;DHT22;7477;45.222;5.688;2024-02-26T01:37:12;12.60;99.90
14771;DHT22;7477;45.222;5.688;2024-02-26T01:40:31;12.80;99.90
14771;DHT22;7477;45.222;5.688;2024-02-26T01:43:50;12.60;99.90
14771;DHT22;7477;45.222;5.688;2024-02-26T01:47:11;12.10;99.90
14771;DHT22;7477;45.222;5.688;2024-02-26T01:50:32;12.30;99.90
14771;DHT22;7477;45.222;5.688;2024-02-26T01:53:53;12.40;99.90
14771;DHT22;7477;45.222;5.688;2024-02-26T01:57:14;12.10;99.90
14771;DHT22;7477;45.222;5.688;2024-02-26T02:00:33;12.50;99.90
14771;DHT22;7477;45.222;5.688;2024-02-26T02:03:54;13.50;99.90
14771;DHT22;7477;45.222;5.688;2024-02-26T02:07:14;13.40;99.90
14771;DHT22;7477;45.222;5.688;2024-02-26T02:10:34;12.60;99.90
14771;DHT22;7477;45.222;5.688;2024-02-26T02:13:54;13.10;99.90
14771;DHT22;7477;45.222;5.688;2024-02-26T02:17:13;12.70;99.90
14771;DHT22;7477;45.222;5.688;2024-02-26T02:20:34;12.70;99.90
14771;DHT22;7477;45.222;5.688;2024-02-26T02:23:53;11.70;99.90
14771;DHT22;7477;45.222;5.688;2024-02-26T02:27:12;11.00;99.90
14771;DHT22;7477;45.222;5.688;2024-02-26T02:30:31;12.00;99.90
14771;DHT22;7477;45.222;5.688;2024-02-26T02:33:52;11.40;99.90
14771;DHT22;7477;45.222;5.688;2024-02-26T02:37:11;11.10;99.90
14771;DHT22;7477;45.222;5.688;2024-02-26T02:40:31;12.20;99.90
14771;DHT22;7477;45.222;5.688;2024-02-26T02:43:50;12.80;99.90
14771;DHT22;7477;45.222;5.688;2024-02-26T02:47:09;13.00;99.90
14771;DHT22;7477;45.222;5.688;2024-02-26T02:50:28;12.10;99.90
14771;DHT22;7477;45.222;5.688;2024-02-26T02:53:48;11.90;99.90
14771;DHT22;7477;45.222;5.688;2024-02-26T02:57:08;13.30;99.90
14771;DHT22;7477;45.222;5.688;2024-02-26T03:00:27;12.80;99.90
14771;DHT22;7477;45.222;5.688;2024-02-26T03:03:46;13.50;99.90
14771;DHT22;7477;45.222;5.688;2024-02-26T03:07:06;13.50;99.90
14771;DHT22;7477;45.222;5.688;2024-02-26T03:10:25;12.20;99.90
14771;DHT22;7477;45.222;5.688;2024-02-26T03:13:44;11.60;99.90
14771;DHT22;7477;45.222;5.688;2024-02-26T03:17:03;11.30;99.90
14771;DHT22;7477;45.222;5.688;2024-02-26T03:20:22;12.70;99.90
14771;DHT22;7477;45.222;5.688;2024-02-26T03:23:42;11.50;99.90
14771;DHT22;7477;45.222;5.688;2024-02-26T03:27:01;12.80;99.90
14771;DHT22;7477;45.222;5.688;2024-02-26T03:30:21;11.90;99.90
14771;DHT22;7477;45.222;5.688;2024-02-26T03:33:40;11.80;99.90
14771;DHT22;7477;45.222;5.688;2024-02-26T03:37:00;12.70;99.90
14771;DHT22;7477;45.222;5.688;2024-02-26T03:40:19;12.20;99.90
14771;DHT22;7477;45.222;5.688;2024-02-26T03:43:38;11.40;99.90
14771;DHT22;7477;45.222;5.688;2024-02-26T03:46:57;12.40;99.90
14771;DHT22;7477;45.222;5.688;2024-02-26T03:50:16;13.40;99.90
14771;DHT22;7477;45.222;5.688;2024-02-26T03:53:36;12.10;99.90
14771;DHT22;7477;45.222;5.688;2024-02-26T03:56:56;11.50;99.90
14771;DHT22;7477;45.222;5.688;2024-02-26T04:00:15;12.10;99.90
14771;DHT22;7477;45.222;5.688;2024-02-26T04:03:35;13.20;99.90
14771;DHT22;7477;45.222;5.688;2024-02-26T04:06:54;12.60;99.90
14771;DHT22;7477;45.222;5.688;2024-02-26T04:10:13;13.40;99.90
14771;DHT22;7477;45.222;5.688;2024-02-26T04:13:34;13.30;99.90
14771;DHT22;7477;45.222;5.688;2024-02-26T04:16:53;13.10;99.90
14771;DHT22;7477;45.222;5.688;2024-02-26T04:20:15;12.70;99.90
14771;DHT22;7477;45.222;5.688;2024-02-26T04:23:34;13.10;99.90
14771;DHT22;7477;45.222;5.688;2024-02-26T04:26:54;12.70;99.90
14771;DHT22;7477;45.222;5.688;2024-02-26T04:30:13;12.70;99.90
14771;DHT22;7477;45.222;5.688;2024-02-26T04:33:34;13.40;99.90
14771;DHT22;7477;45.222;5.688;2024-02-26T04:36:54;13.50;99.90
14771;DHT22;7477;45.222;5.688;2024-02-26T04:40:13;11.90;99.90
14771;DHT22;7477;45.222;5.688;2024-02-26T04:43:32;12.40;99.90
14771;DHT22;7477;45.222;5.688;2024-02-26T04:46:51;13.60;99.90
14771;DHT22;7477;45.222;5.688;2024-02-26T04:50:10;12.70;99.90
14771;DHT22;7477;45.222;5.688;2024-02-26T04:53:29;13.80;99.90
14771;DHT22;7477;45.222;5.688;2024-02-26T04:56:49;12.80;99.90
14771;DHT22;7477;45.222;5.688;2024-02-26T05:00:09;12.50;99.90
14771;DHT22;7477;45.222;5.688;2024-02-26T05:03:28;12.50;99.90
14771;DHT22;7477;45.222;5.688;2024-02-26T05:06:48;12.00;99.90
14771;DHT22;7477;45.222;5.688;2024-02-26T05:10:07;12.80;99.90
14771;DHT22;7477;45.222;5.688;2024-02-26T05:13:27;13.10;99.90
14771;DHT22;7477;45.222;5.688;2024-02-26T05:16:46;13.20;99.90
14771;DHT22;7477;45.222;5.688;2024-02-26T05:20:06;12.10;99.90
14771;DHT22;7477;45.222;5.688;2024-02-26T05:23:27;12.20;99.90
14771;DHT22;7477;45.222;5.688;2024-02-26T05:26:46;13.20;99.90
14771;DHT22;7477;45.222;5.688;2024-02-26T05:30:06;13.50;99.90
14771;DHT22;7477;45.222;5.688;2024-02-26T05:33:26;13.60;99.90
14771;DHT22;7477;45.222;5.688;2024-02-26T05:36:45;13.60;99.90
14771;DHT22;7477;45.222;5.688;2024-02-26T05:40:05;13.10;99.90
14771;DHT22;7477;45.222;5.688;2024-02-26T05:43:26;12.50;99.90
14771;DHT22;7477;45.222;5.688;2024-02-26T05:46:45;12.80;99.90
14771;DHT22;7477;45.222;5.688;2024-02-26T05:50:05;12.00;99.90
14771;DHT22;7477;45.222;5.688;2024-02-26T05:53:24;12.10;99.90
14771;DHT22;7477;45.222;5.688;2024-02-26T05:56:44;11.50;99.90
14771;DHT22;7477;45.222;5.688;2024-02-26T06:00:03;11.00;99.90
14771;DHT22;7477;45.222;5.688;2024-02-26T06:03:23;10.70;99.90
14771;DHT22;7477;45.222;5.688;2024-02-26T06:06:42;11.10;99.90
14771;DHT22;7477;45.222;5.688;2024-02-26T06:10:02;11.90;99.90
14771;DHT22;7477;45.222;5.688;2024-02-26T06:13:21;11.20;99.90
14771;DHT22;7477;45.222;5.688;2024-02-26T06:20:01;10.80;99.90
14771;DHT22;7477;45.222;5.688;2024-02-26T06:23:20;12.50;99.90
14771;DHT22;7477;45.222;5.688;2024-02-26T06:26:39;12.60;99.90
14771;DHT22;7477;45.222;5.688;2024-02-26T06:29:58;11.10;99.90
14771;DHT22;7477;45.222;5.688;2024-02-26T06:33:17;10.60;99.90
14771;DHT22;7477;45.222;5.688;2024-02-26T06:36:37;11.20;99.90
14771;DHT22;7477;45.222;5.688;2024-02-26T06:39:56;11.90;99.90
14771;DHT22;7477;45.222;5.688;2024-02-26T06:43:15;12.00;99.90
14771;DHT22;7477;45.222;5.688;2024-02-26T06:46:35;11.60;99.90
14771;DHT22;7477;45.222;5.688;2024-02-26T06:49:54;11.70;99.90
14771;DHT22;7477;45.222;5.688;2024-02-26T06:53:17;12.10;99.90
14771;DHT22;7477;45.222;5.688;2024-02-26T06:56:36;11.00;99.90
14771;DHT22;7477;45.222;5.688;2024-02-26T06:59:55;11.10;99.90
14771;DHT22;7477;45.222;5.688;2024-02-26T07:03:14;11.80;99.90
14771;DHT22;7477;45.222;5.688;2024-02-26T07:06:34;11.70;99.90
14771;DHT22;7477;45.222;5.688;2024-02-26T07:09:53;11.20;99.90
14771;DHT22;7477;45.222;5.688;2024-02-26T07:13:12;10.60;99.90
14771;DHT22;7477;45.222;5.688;2024-02-26T07:16:31;10.20;99.90
14771;DHT22;7477;45.222;5.688;2024-02-26T07:19:51;10.20;99.90
14771;DHT22;7477;45.222;5.688;2024-02-26T07:23:10;10.00;99.90
14771;DHT22;7477;45.222;5.688;2024-02-26T07:26:30;9.90;99.90
14771;DHT22;7477;45.222;5.688;2024-02-26T07:29:50;9.80;99.90
14771;DHT22;7477;45.222;5.688;2024-02-26T07:33:09;9.80;99.90
14771;DHT22;7477;45.222;5.688;2024-02-26T07:36:28;9.80;99.90
14771;DHT22;7477;45.222;5.688;2024-02-26T07:39:47;9.80;99.90
14771;DHT22;7477;45.222;5.688;2024-02-26T07:43:06;9.80;99.90
14771;DHT22;7477;45.222;5.688;2024-02-26T07:46:27;9.80;99.90
14771;DHT22;7477;45.222;5.688;2024-02-26T07:49:47;9.90;99.90
14771;DHT22;7477;45.222;5.688;2024-02-26T07:53:06;10.00;99.90
14771;DHT22;7477;45.222;5.688;2024-02-26T07:56:25;11.40;99.90
14771;DHT22;7477;45.222;5.688;2024-02-26T07:59:45;11.40;99.90
14771;DHT22;7477;45.222;5.688;2024-02-26T08:03:08;10.70;99.90
14771;DHT22;7477;45.222;5.688;2024-02-26T08:06:30;10.50;99.90
14771;DHT22;7477;45.222;5.688;2024-02-26T08:09:49;10.40;99.90
14771;DHT22;7477;45.222;5.688;2024-02-26T08:13:09;10.30;99.90
14771;DHT22;7477;45.222;5.688;2024-02-26T08:16:28;10.20;99.90
14771;DHT22;7477;45.222;5.688;2024-02-26T08:19:47;10.20;99.90
14771;DHT22;7477;45.222;5.688;2024-02-26T08:23:06;10.10;99.90
14771;DHT22;7477;45.222;5.688;2024-02-26T08:26:25;10.90;99.90
14771;DHT22;7477;45.222;5.688;2024-02-26T08:29:47;10.70;99.90
14771;DHT22;7477;45.222;5.688;2024-02-26T08:33:07;10.60;99.90
14771;DHT22;7477;45.222;5.688;2024-02-26T08:36:26;10.50;99.90
14771;DHT22;7477;45.222;5.688;2024-02-26T08:39:45;10.40;99.90
14771;DHT22;7477;45.222;5.688;2024-02-26T08:43:05;10.30;99.90
14771;DHT22;7477;45.222;5.688;2024-02-26T08:46:24;10.30;99.90
14771;DHT22;7477;45.222;5.688;2024-02-26T08:49:45;10.20;99.90
14771;DHT22;7477;45.222;5.688;2024-02-26T08:53:04;10.20;99.90
14771;DHT22;7477;45.222;5.688;2024-02-26T08:56:24;10.20;99.90
14771;DHT22;7477;45.222;5.688;2024-02-26T08:59:43;10.20;99.90
14771;DHT22;7477;45.222;5.688;2024-02-26T09:03:03;10.20;99.90
14771;DHT22;7477;45.222;5.688;2024-02-26T09:06:22;10.20;99.90
14771;DHT22;7477;45.222;5.688;2024-02-26T09:09:42;10.30;99.90
14771;DHT22;7477;45.222;5.688;2024-02-26T09:13:01;10.30;99.90
14771;DHT22;7477;45.222;5.688;2024-02-26T09:16:20;10.40;99.90
14771;DHT22;7477;45.222;5.688;2024-02-26T09:19:39;10.40;99.90
14771;DHT22;7477;45.222;5.688;2024-02-26T09:23:01;10.50;99.90
14771;DHT22;7477;45.222;5.688;2024-02-26T09:26:20;10.50;99.90
14771;DHT22;7477;45.222;5.688;2024-02-26T09:29:39;10.60;99.90
14771;DHT22;7477;45.222;5.688;2024-02-26T09:32:58;10.70;99.90
14771;DHT22;7477;45.222;5.688;2024-02-26T09:36:18;10.70;99.90
14771;DHT22;7477;45.222;5.688;2024-02-26T09:39:37;11.10;99.90
14771;DHT22;7477;45.222;5.688;2024-02-26T09:43:00;10.90;99.90
14771;DHT22;7477;45.222;5.688;2024-02-26T09:46:20;10.90;99.90
14771;DHT22;7477;45.222;5.688;2024-02-26T09:49:40;11.00;99.90
14771;DHT22;7477;45.222;5.688;2024-02-26T09:53:01;11.00;99.90
14771;DHT22;7477;45.222;5.688;2024-02-26T09:56:22;11.10;99.90
14771;DHT22;7477;45.222;5.688;2024-02-26T09:59:42;11.30;99.90
14771;DHT22;7477;45.222;5.688;2024-02-26T10:03:06;11.30;99.90
14771;DHT22;7477;45.222;5.688;2024-02-26T10:06:30;11.70;99.90
14771;DHT22;7477;45.222;5.688;2024-02-26T10:09:50;11.70;99.90
14771;DHT22;7477;45.222;5.688;2024-02-26T10:13:10;11.60;99.90
14771;DHT22;7477;45.222;5.688;2024-02-26T10:16:31;11.60;99.90
14771;DHT22;7477;45.222;5.688;2024-02-26T10:19:51;11.50;99.90
14771;DHT22;7477;45.222;5.688;2024-02-26T10:23:14;11.70;99.90
14771;DHT22;7477;45.222;5.688;2024-02-26T10:26:33;11.80;99.90
14771;DHT22;7477;45.222;5.688;2024-02-26T10:29:52;11.70;99.90
14771;DHT22;7477;45.222;5.688;2024-02-26T10:33:13;11.70;99.90
14771;DHT22;7477;45.222;5.688;2024-02-26T10:36:34;11.70;99.90
14771;DHT22;7477;45.222;5.688;2024-02-26T10:39:56;11.60;99.90
14771;DHT22;7477;45.222;5.688;2024-02-26T10:43:16;11.70;99.90
14771;DHT22;7477;45.222;5.688;2024-02-26T10:46:36;12.00;99.90
14771;DHT22;7477;45.222;5.688;2024-02-26T10:49:56;12.20;99.90
14771;DHT22;7477;45.222;5.688;2024-02-26T10:53:21;12.00;99.90
14771;DHT22;7477;45.222;5.688;2024-02-26T10:56:42;12.40;99.90
14771;DHT22;7477;45.222;5.688;2024-02-26T11:00:03;12.80;99.90
14771;DHT22;7477;45.222;5.688;2024-02-26T11:03:26;12.10;99.90
14771;DHT22;7477;45.222;5.688;2024-02-26T11:06:46;12.30;99.90
14771;DHT22;7477;45.222;5.688;2024-02-26T11:10:06;12.30;99.90
14771;DHT22;7477;45.222;5.688;2024-02-26T11:13:30;12.00;99.90
14771;DHT22;7477;45.222;5.688;2024-02-26T11:16:50;12.10;99.90
14771;DHT22;7477;45.222;5.688;2024-02-26T11:20:10;12.50;99.90
14771;DHT22;7477;45.222;5.688;2024-02-26T11:23:31;12.30;99.90
14771;DHT22;7477;45.222;5.688;2024-02-26T11:26:55;12.30;99.90
14771;DHT22;7477;45.222;5.688;2024-02-26T11:30:19;12.70;99.90
14771;DHT22;7477;45.222;5.688;2024-02-26T11:33:38;12.80;99.90
14771;DHT22;7477;45.222;5.688;2024-02-26T11:37:11;12.50;99.90
14771;DHT22;7477;45.222;5.688;2024-02-26T11:40:32;12.90;99.90
14771;DHT22;7477;45.222;5.688;2024-02-26T11:44:01;12.70;99.90
14771;DHT22;7477;45.222;5.688;2024-02-26T11:47:22;12.70;99.90
14771;DHT22;7477;45.222;5.688;2024-02-26T11:50:43;12.80;99.90
14771;DHT22;7477;45.222;5.688;2024-02-26T11:54:02;12.80;99.90
14771;DHT22;7477;45.222;5.688;2024-02-26T11:57:27;12.90;99.90
14771;DHT22;7477;45.222;5.688;2024-02-26T12:00:47;12.90;99.90
14771;DHT22;7477;45.222;5.688;2024-02-26T12:04:14;13.00;99.90
14771;DHT22;7477;45.222;5.688;2024-02-26T12:07:36;13.20;99.90
14771;DHT22;7477;45.222;5.688;2024-02-26T12:10:58;13.20;99.90
14771;DHT22;7477;45.222;5.688;2024-02-26T12:14:18;13.10;99.90
14771;DHT22;7477;45.222;5.688;2024-02-26T12:17:40;13.40;99.90
14771;DHT22;7477;45.222;5.688;2024-02-26T12:21:01;13.30;99.90
14771;DHT22;7477;45.222;5.688;2024-02-26T12:24:20;13.40;99.90
14771;DHT22;7477;45.222;5.688;2024-02-26T12:27:40;13.50;99.90
14771;DHT22;7477;45.222;5.688;2024-02-26T12:31:00;13.40;99.90
14771;DHT22;7477;45.222;5.688;2024-02-26T12:34:20;13.50;99.90
14771;DHT22;7477;45.222;5.688;2024-02-26T12:37:39;13.40;99.90
14771;DHT22;7477;45.222;5.688;2024-02-26T12:40:59;13.60;99.90
14771;DHT22;7477;45.222;5.688;2024-02-26T12:44:24;13.70;99.90
14771;DHT22;7477;45.222;5.688;2024-02-26T12:47:45;13.80;99.90
14771;DHT22;7477;45.222;5.688;2024-02-26T12:51:12;13.80;99.90
14771;DHT22;7477;45.222;5.688;2024-02-26T12:54:32;13.90;99.90
14771;DHT22;7477;45.222;5.688;2024-02-26T12:57:52;13.90;99.90
14771;DHT22;7477;45.222;5.688;2024-02-26T13:01:16;13.70;99.90
14771;DHT22;7477;45.222;5.688;2024-02-26T13:04:36;13.60;99.90
14771;DHT22;7477;45.222;5.688;2024-02-26T13:07:56;13.60;99.90
14771;DHT22;7477;45.222;5.688;2024-02-26T13:11:15;13.50;99.90
14771;DHT22;7477;45.222;5.688;2024-02-26T13:14:35;13.60;99.90
14771;DHT22;7477;45.222;5.688;2024-02-26T13:17:54;13.80;99.90
14771;DHT22;7477;45.222;5.688;2024-02-26T13:21:16;13.80;99.90
14771;DHT22;7477;45.222;5.688;2024-02-26T13:24:37;13.90;99.90
14771;DHT22;7477;45.222;5.688;2024-02-26T13:28:16;14.10;99.90
14771;DHT22;7477;45.222;5.688;2024-02-26T13:31:39;14.20;99.90
14771;DHT22;7477;45.222;5.688;2024-02-26T13:35:08;14.20;99.90
14771;DHT22;7477;45.222;5.688;2024-02-26T13:38:28;14.10;99.90
14771;DHT22;7477;45.222;5.688;2024-02-26T13:41:47;14.10;99.90
14771;DHT22;7477;45.222;5.688;2024-02-26T13:45:07;14.00;99.90
14771;DHT22;7477;45.222;5.688;2024-02-26T13:48:27;13.80;99.90
14771;DHT22;7477;45.222;5.688;2024-02-26T13:51:46;13.70;99.90
14771;DHT22;7477;45.222;5.688;2024-02-26T13:55:06;13.70;99.90
14771;DHT22;7477;45.222;5.688;2024-02-26T13:58:27;13.70;99.90
14771;DHT22;7477;45.222;5.688;2024-02-26T14:01:46;13.70;99.90
14771;DHT22;7477;45.222;5.688;2024-02-26T14:05:06;13.70;99.90
14771;DHT22;7477;45.222;5.688;2024-02-26T14:08:25;13.70;99.90
14771;DHT22;7477;45.222;5.688;2024-02-26T14:11:45;13.80;99.90
14771;DHT22;7477;45.222;5.688;2024-02-26T14:15:08;13.90;99.90
14771;DHT22;7477;45.222;5.688;2024-02-26T14:18:28;13.90;99.90
14771;DHT22;7477;45.222;5.688;2024-02-26T14:21:47;14.00;99.90
14771;DHT22;7477;45.222;5.688;2024-02-26T14:25:10;14.00;99.90
14771;DHT22;7477;45.222;5.688;2024-02-26T14:28:30;14.00;99.90
14771;DHT22;7477;45.222;5.688;2024-02-26T14:31:51;14.00;99.90
14771;DHT22;7477;45.222;5.688;2024-02-26T14:35:10;14.00;99.90
14771;DHT22;7477;45.222;5.688;2024-02-26T14:38:29;14.00;99.90
14771;DHT22;7477;45.222;5.688;2024-02-26T14:41:49;14.00;99.90
14771;DHT22;7477;45.222;5.688;2024-02-26T14:45:09;14.00;99.90
14771;DHT22;7477;45.222;5.688;2024-02-26T14:48:30;14.00;99.90
14771;DHT22;7477;45.222;5.688;2024-02-26T14:51:51;14.10;99.90
14771;DHT22;7477;45.222;5.688;2024-02-26T14:55:11;14.00;99.90
14771;DHT22;7477;45.222;5.688;2024-02-26T14:58:31;13.90;99.90
14771;DHT22;7477;45.222;5.688;2024-02-26T15:01:50;13.80;99.90
14771;DHT22;7477;45.222;5.688;2024-02-26T15:05:09;13.80;99.90
14771;DHT22;7477;45.222;5.688;2024-02-26T15:08:30;13.80;99.90
14771;DHT22;7477;45.222;5.688;2024-02-26T15:11:50;13.90;99.90
14771;DHT22;7477;45.222;5.688;2024-02-26T15:15:10;13.80;99.90
14771;DHT22;7477;45.222;5.688;2024-02-26T15:18:29;13.80;99.90
14771;DHT22;7477;45.222;5.688;2024-02-26T15:21:48;13.70;99.90
14771;DHT22;7477;45.222;5.688;2024-02-26T15:25:08;13.60;99.90
14771;DHT22;7477;45.222;5.688;2024-02-26T15:28:28;13.60;99.90
14771;DHT22;7477;45.222;5.688;2024-02-26T15:31:47;13.50;99.90
14771;DHT22;7477;45.222;5.688;2024-02-26T15:35:07;13.50;99.90
14771;DHT22;7477;45.222;5.688;2024-02-26T15:38:26;13.40;99.90
14771;DHT22;7477;45.222;5.688;2024-02-26T15:41:46;13.40;99.90
14771;DHT22;7477;45.222;5.688;2024-02-26T15:45:06;13.50;99.90
14771;DHT22;7477;45.222;5.688;2024-02-26T15:48:25;13.50;99.90
14771;DHT22;7477;45.222;5.688;2024-02-26T15:51:44;13.50;99.90
14771;DHT22;7477;45.222;5.688;2024-02-26T15:55:05;13.50;99.90
14771;DHT22;7477;45.222;5.688;2024-02-26T15:58:24;13.40;99.90
14771;DHT22;7477;45.222;5.688;2024-02-26T16:01:44;13.40;99.90
14771;DHT22;7477;45.222;5.688;2024-02-26T16:05:05;13.40;99.90
14771;DHT22;7477;45.222;5.688;2024-02-26T16:08:24;13.30;99.90
14771;DHT22;7477;45.222;5.688;2024-02-26T16:11:44;13.20;99.90
14771;DHT22;7477;45.222;5.688;2024-02-26T16:15:04;13.20;99.90
14771;DHT22;7477;45.222;5.688;2024-02-26T16:18:24;13.20;99.90
14771;DHT22;7477;45.222;5.688;2024-02-26T16:21:43;13.20;99.90
14771;DHT22;7477;45.222;5.688;2024-02-26T16:25:03;13.30;99.90
14771;DHT22;7477;45.222;5.688;2024-02-26T16:28:23;13.30;99.90
14771;DHT22;7477;45.222;5.688;2024-02-26T16:31:44;13.20;99.90
14771;DHT22;7477;45.222;5.688;2024-02-26T16:35:04;13.20;99.90
14771;DHT22;7477;45.222;5.688;2024-02-26T16:38:26;13.20;99.90
14771;DHT22;7477;45.222;5.688;2024-02-26T16:41:45;13.20;99.90
14771;DHT22;7477;45.222;5.688;2024-02-26T16:45:04;13.10;99.90
14771;DHT22;7477;45.222;5.688;2024-02-26T16:48:24;13.10;99.90
14771;DHT22;7477;45.222;5.688;2024-02-26T16:51:43;13.10;99.90
14771;DHT22;7477;45.222;5.688;2024-02-26T16:55:02;13.00;99.90
14771;DHT22;7477;45.222;5.688;2024-02-26T16:58:23;12.90;99.90
14771;DHT22;7477;45.222;5.688;2024-02-26T17:01:47;12.90;99.90
14771;DHT22;7477;45.222;5.688;2024-02-26T17:05:07;12.80;99.90
14771;DHT22;7477;45.222;5.688;2024-02-26T17:08:29;12.70;99.90
14771;DHT22;7477;45.222;5.688;2024-02-26T17:11:52;12.60;99.90
14771;DHT22;7477;45.222;5.688;2024-02-26T17:15:13;12.60;99.90
14771;DHT22;7477;45.222;5.688;2024-02-26T17:18:33;12.30;99.90
14771;DHT22;7477;45.222;5.688;2024-02-26T17:21:52;12.30;99.90
14771;DHT22;7477;45.222;5.688;2024-02-26T17:25:12;12.10;99.90
14771;DHT22;7477;45.222;5.688;2024-02-26T17:28:32;12.10;99.90
14771;DHT22;7477;45.222;5.688;2024-02-26T17:31:52;12.00;99.90
14771;DHT22;7477;45.222;5.688;2024-02-26T17:35:11;11.90;99.90
14771;DHT22;7477;45.222;5.688;2024-02-26T17:38:34;11.90;99.90
14771;DHT22;7477;45.222;5.688;2024-02-26T17:41:54;11.90;99.90
14771;DHT22;7477;45.222;5.688;2024-02-26T17:45:13;12.00;99.90
14771;DHT22;7477;45.222;5.688;2024-02-26T17:48:32;11.90;99.90
14771;DHT22;7477;45.222;5.688;2024-02-26T17:51:54;11.70;99.90
14771;DHT22;7477;45.222;5.688;2024-02-26T17:55:16;11.60;99.90
14771;DHT22;7477;45.222;5.688;2024-02-26T17:58:37;11.50;99.90
14771;DHT22;7477;45.222;5.688;2024-02-26T18:01:59;11.50;99.90
14771;DHT22;7477;45.222;5.688;2024-02-26T18:05:18;11.50;99.90
14771;DHT22;7477;45.222;5.688;2024-02-26T18:08:37;11.50;99.90
14771;DHT22;7477;45.222;5.688;2024-02-26T18:11:57;11.40;99.90
14771;DHT22;7477;45.222;5.688;2024-02-26T18:15:16;11.40;99.90
14771;DHT22;7477;45.222;5.688;2024-02-26T18:18:35;11.30;99.90
14771;DHT22;7477;45.222;5.688;2024-02-26T18:21:55;11.20;99.90
14771;DHT22;7477;45.222;5.688;2024-02-26T18:25:16;11.20;99.90
14771;DHT22;7477;45.222;5.688;2024-02-26T18:28:36;11.20;99.90
14771;DHT22;7477;45.222;5.688;2024-02-26T18:31:55;11.20;99.90
14771;DHT22;7477;45.222;5.688;2024-02-26T18:35:14;11.20;99.90
14771;DHT22;7477;45.222;5.688;2024-02-26T18:38:34;11.10;99.90
14771;DHT22;7477;45.222;5.688;2024-02-26T18:41:53;11.00;99.90
14771;DHT22;7477;45.222;5.688;2024-02-26T18:45:15;10.90;99.90
14771;DHT22;7477;45.222;5.688;2024-02-26T18:48:34;10.90;99.90
14771;DHT22;7477;45.222;5.688;2024-02-26T18:51:54;11.00;99.90
14771;DHT22;7477;45.222;5.688;2024-02-26T18:55:15;11.00;99.90
14771;DHT22;7477;45.222;5.688;2024-02-26T18:58:35;10.90;99.90
14771;DHT22;7477;45.222;5.688;2024-02-26T19:01:54;10.80;99.90
14771;DHT22;7477;45.222;5.688;2024-02-26T19:05:14;10.70;99.90
14771;DHT22;7477;45.222;5.688;2024-02-26T19:08:33;10.70;99.90
14771;DHT22;7477;45.222;5.688;2024-02-26T19:11:52;10.50;99.90
14771;DHT22;7477;45.222;5.688;2024-02-26T19:15:14;10.40;99.90
14771;DHT22;7477;45.222;5.688;2024-02-26T19:18:36;10.30;99.90
14771;DHT22;7477;45.222;5.688;2024-02-26T19:21:55;10.30;99.90
14771;DHT22;7477;45.222;5.688;2024-02-26T19:25:16;10.50;99.90
14771;DHT22;7477;45.222;5.688;2024-02-26T19:28:36;10.60;99.90
14771;DHT22;7477;45.222;5.688;2024-02-26T19:31:55;10.40;99.90
14771;DHT22;7477;45.222;5.688;2024-02-26T19:35:14;10.30;99.90
14771;DHT22;7477;45.222;5.688;2024-02-26T19:38:33;10.20;99.90
14771;DHT22;7477;45.222;5.688;2024-02-26T19:41:53;10.20;99.90
14771;DHT22;7477;45.222;5.688;2024-02-26T19:45:12;10.20;99.90
14771;DHT22;7477;45.222;5.688;2024-02-26T19:48:32;10.20;99.90
14771;DHT22;7477;45.222;5.688;2024-02-26T19:51:52;10.10;99.90
14771;DHT22;7477;45.222;5.688;2024-02-26T19:55:13;10.10;99.90
14771;DHT22;7477;45.222;5.688;2024-02-26T19:58:33;10.20;99.90
14771;DHT22;7477;45.222;5.688;2024-02-26T20:01:52;10.10;99.90
14771;DHT22;7477;45.222;5.688;2024-02-26T20:05:11;10.00;99.90
14771;DHT22;7477;45.222;5.688;2024-02-26T20:08:31;10.00;99.90
14771;DHT22;7477;45.222;5.688;2024-02-26T20:11:50;10.00;99.90
14771;DHT22;7477;45.222;5.688;2024-02-26T20:15:09;10.00;99.90
14771;DHT22;7477;45.222;5.688;2024-02-26T20:18:29;10.10;99.90
14771;DHT22;7477;45.222;5.688;2024-02-26T20:21:48;10.00;99.90
14771;DHT22;7477;45.222;5.688;2024-02-26T20:25:08;9.90;99.90
14771;DHT22;7477;45.222;5.688;2024-02-26T20:28:27;9.90;99.90
14771;DHT22;7477;45.222;5.688;2024-02-26T20:31:46;10.00;99.90
14771;DHT22;7477;45.222;5.688;2024-02-26T20:35:06;10.00;99.90
14771;DHT22;7477;45.222;5.688;2024-02-26T20:38:27;10.00;99.90
14771;DHT22;7477;45.222;5.688;2024-02-26T20:41:46;9.90;99.90
14771;DHT22;7477;45.222;5.688;2024-02-26T20:45:05;9.80;99.90
14771;DHT22;7477;45.222;5.688;2024-02-26T20:48:25;9.70;99.90
14771;DHT22;7477;45.222;5.688;2024-02-26T20:51:44;9.80;99.90
14771;DHT22;7477;45.222;5.688;2024-02-26T20:55:04;9.90;99.90
14771;DHT22;7477;45.222;5.688;2024-02-26T20:58:25;9.90;99.90
14771;DHT22;7477;45.222;5.688;2024-02-26T21:01:44;9.90;99.90
14771;DHT22;7477;45.222;5.688;2024-02-26T21:05:04;9.90;99.90
14771;DHT22;7477;45.222;5.688;2024-02-26T21:08:24;9.90;99.90
14771;DHT22;7477;45.222;5.688;2024-02-26T21:11:44;9.90;99.90
14771;DHT22;7477;45.222;5.688;2024-02-26T21:15:04;9.80;99.90
14771;DHT22;7477;45.222;5.688;2024-02-26T21:18:24;9.80;99.90
14771;DHT22;7477;45.222;5.688;2024-02-26T21:21:43;9.70;99.90
14771;DHT22;7477;45.222;5.688;2024-02-26T21:25:03;9.70;99.90
14771;DHT22;7477;45.222;5.688;2024-02-26T21:28:22;9.70;99.90